Sedalia, North Carolina
Current Conditions -  °F | °C
As of 3:54 AM on Saturday 25 Oct 2014 (Local Time) from KBUY Reporting Station
Clear Clear  
Wind Chill: 42°   Ceiling: Unl
Heat Index: 44°   Visibility: 10mi
Dew Point: 39°   Wind: 5mph
Humidity: 82%   Direction: 270°W
Pressure: 29.98"   Gusts: NA
Location:  36.07°N, 79.62°W
Report Text: KBUY 250754Z AUTO 27004KT 10SM CLR 07/04 A2998 RMK AO2 SLP150 T00670039
Loading
Personal Weather Stations






























Interactive Weather Map
Tropical Storm Tracking
New forecast layout! Learn more

10-Day Weather Forecast

Advertisements
Track Severe Weather on mobile